M/V Le Conte — WZE4270 — position and weather

sailwx.info

Track history (hours):
 
Tides and Currents Weather Stations Pressure Air Temp Water Temp Dewpoint Dewpoint Depression Visibility Wind Speed Wind Dir Waves Ship Positions

M/V Le Conte

Owner: ALASKA MARINE HIGHWAY SYSTEM, JUNEAU, AK. More information available from US FCC via Universal Licensing System and Coast Guard Vessel Documentation Center.

Last reported at 2017-Oct-23 23:17 UTC. Time now 2017-Nov-18 13:58 UTC.
Position N 58°15' W 135°27'.
Warning: this ship's position is 25 days out of date.

Type: Ship. MMSI: 338761000.

Date/timePositionNaut miles runAvg speedWind from/ knotsBaromVisibWave heightAir tempDewpointWater temp
2017-Oct-23 23:17N 58°15' W 135°27'515.6
2017-Oct-23 22:58N 58°16' W 135°36'714.3
2017-Oct-23 22:30N 58°21' W 135°45'2 3.6
2017-Oct-23 21:55N 58°23' W 135°44'0 0.0
2017-Oct-23 21:19N 58°23' W 135°44'0 1.3
2017-Oct-23 21:00N 58°23' W 135°44'611.9
2017-Oct-23 20:30N 58°17' W 135°40'13 0.3
2017-Oct-22 04:20N 58°09' W 135°21'3 1.8
2017-Oct-22 02:32N 58°08' W 135°27'116.1
2017-Oct-22 02:28N 58°09' W 135°26'  
2017-Oct-19 19:42N 58°09' W 135°18'415.4
2017-Oct-19 19:28N 58°09' W 135°25'1 0.9
2017-Oct-19 18:00N 58°09' W 135°27'6 0.3
2017-Oct-18 23:07N 58°14' W 135°25'215.3
2017-Oct-18 23:00N 58°15' W 135°28'714.8
2017-Oct-18 22:30N 58°18' W 135°40'612.0
2017-Oct-18 22:00N 58°23' W 135°44'0 0.1
2017-Oct-18 21:28N 58°23' W 135°44'0 0.0
2017-Oct-18 20:51N 58°23' W 135°44'2 5.5
2017-Oct-18 20:30N 58°22' W 135°45'916.7
2017-Oct-18 19:58N 58°15' W 135°34'7 0.1
2017-Oct-16 21:51N 58°09' W 135°27'410.8
2017-Oct-16 21:28N 58°13' W 135°29'715.2
2017-Oct-16 21:00N 58°17' W 135°40'612.8
2017-Oct-16 20:31N 58°23' W 135°44'0 0.6
2017-Oct-16 19:56N 58°23' W 135°44'0 0.0
2017-Oct-16 19:26N 58°23' W 135°44'1 2.2
2017-Oct-16 19:00N 58°23' W 135°45'714.5
2017-Oct-16 18:30N 58°17' W 135°36'11 0.2
2017-Oct-14 19:38N 58°09' W 135°21'214.4
2017-Oct-14 19:30N 58°09' W 135°25'2 1.2
2017-Oct-14 18:06N 58°08' W 135°28'  
Track history (hours):
 
Tides and Currents Weather Stations Pressure Air Temp Water Temp Dewpoint Dewpoint Depression Visibility Wind Speed Wind Dir Waves Ship Positions

M/V Le Conte

Owner: ALASKA MARINE HIGHWAY SYSTEM, JUNEAU, AK. More information available from US FCC via Universal Licensing System and Coast Guard Vessel Documentation Center.

Last reported at 2017-Oct-23 23:17 UTC. Time now 2017-Nov-18 13:58 UTC.
Position N 58°15' W 135°27'.
Warning: this ship's position is 25 days out of date.

Type: Ship. MMSI: 338761000.

Date/timePositionNaut miles runAvg speedWind from/ knotsBaromVisibWave heightAir tempDewpointWater temp
2017-Oct-23 23:17N 58°15' W 135°27'515.6
2017-Oct-23 22:58N 58°16' W 135°36'714.3
2017-Oct-23 22:30N 58°21' W 135°45'2 3.6
2017-Oct-23 21:55N 58°23' W 135°44'0 0.0
2017-Oct-23 21:19N 58°23' W 135°44'0 1.3
2017-Oct-23 21:00N 58°23' W 135°44'611.9
2017-Oct-23 20:30N 58°17' W 135°40'13 0.3
2017-Oct-22 04:20N 58°09' W 135°21'3 1.8
2017-Oct-22 02:32N 58°08' W 135°27'116.1
2017-Oct-22 02:28N 58°09' W 135°26'  
2017-Oct-19 19:42N 58°09' W 135°18'415.4
2017-Oct-19 19:28N 58°09' W 135°25'1 0.9
2017-Oct-19 18:00N 58°09' W 135°27'6 0.3
2017-Oct-18 23:07N 58°14' W 135°25'215.3
2017-Oct-18 23:00N 58°15' W 135°28'714.8
2017-Oct-18 22:30N 58°18' W 135°40'612.0
2017-Oct-18 22:00N 58°23' W 135°44'0 0.1
2017-Oct-18 21:28N 58°23' W 135°44'0 0.0
2017-Oct-18 20:51N 58°23' W 135°44'2 5.5
2017-Oct-18 20:30N 58°22' W 135°45'916.7
2017-Oct-18 19:58N 58°15' W 135°34'7 0.1
2017-Oct-16 21:51N 58°09' W 135°27'410.8
2017-Oct-16 21:28N 58°13' W 135°29'715.2
2017-Oct-16 21:00N 58°17' W 135°40'612.8
2017-Oct-16 20:31N 58°23' W 135°44'0 0.6
2017-Oct-16 19:56N 58°23' W 135°44'0 0.0
2017-Oct-16 19:26N 58°23' W 135°44'1 2.2
2017-Oct-16 19:00N 58°23' W 135°45'714.5
2017-Oct-16 18:30N 58°17' W 135°36'11 0.2
2017-Oct-14 19:38N 58°09' W 135°21'214.4
2017-Oct-14 19:30N 58°09' W 135°25'2 1.2
2017-Oct-14 18:06N 58°08' W 135°28'  

Dump ship's entire track history